sensor_id;sensor_type;location;lat;lon;timestamp;pressure;altitude;pressure_sealevel;temperature;humidity
77159;BME280;66129;45.890;13.714;2023-02-24T00:01:53;100976.44;;;2.38;92.48
77159;BME280;66129;45.890;13.714;2023-02-24T00:04:24;101024.50;;;2.68;93.29
77159;BME280;66129;45.890;13.714;2023-02-24T00:06:52;100975.91;;;2.43;92.67
77159;BME280;66129;45.890;13.714;2023-02-24T00:09:24;101007.22;;;2.45;92.12
77159;BME280;66129;45.890;13.714;2023-02-24T00:12:04;101053.72;;;2.78;91.68
77159;BME280;66129;45.890;13.714;2023-02-24T00:14:36;100969.75;;;2.24;91.99
77159;BME280;66129;45.890;13.714;2023-02-24T00:17:02;100960.44;;;2.23;91.75
77159;BME280;66129;45.890;13.714;2023-02-24T00:19:29;101039.88;;;2.71;91.67
77159;BME280;66129;45.890;13.714;2023-02-24T00:22:02;100958.78;;;2.23;91.77
77159;BME280;66129;45.890;13.714;2023-02-24T00:24:29;100968.34;;;2.29;91.71
77159;BME280;66129;45.890;13.714;2023-02-24T00:26:56;101014.78;;;2.60;92.47
77159;BME280;66129;45.890;13.714;2023-02-24T00:29:24;101024.31;;;2.49;94.18
77159;BME280;66129;45.890;13.714;2023-02-24T00:31:54;100967.34;;;1.97;94.09
77159;BME280;66129;45.890;13.714;2023-02-24T00:34:35;100938.09;;;1.71;94.60
77159;BME280;66129;45.890;13.714;2023-02-24T00:37:01;101010.59;;;2.01;95.72
77159;BME280;66129;45.890;13.714;2023-02-24T00:39:27;100951.69;;;1.73;95.07
77159;BME280;66129;45.890;13.714;2023-02-24T00:41:59;100971.19;;;1.90;95.20
77159;BME280;66129;45.890;13.714;2023-02-24T00:44:32;101032.00;;;2.36;94.95
77159;BME280;66129;45.890;13.714;2023-02-24T00:46:59;101028.44;;;2.33;94.69
77159;BME280;66129;45.890;13.714;2023-02-24T00:49:30;101042.53;;;2.44;94.87
77159;BME280;66129;45.890;13.714;2023-02-24T00:51:56;100938.59;;;1.95;93.90
77159;BME280;66129;45.890;13.714;2023-02-24T00:54:25;100998.25;;;2.36;93.42
77159;BME280;66129;45.890;13.714;2023-02-24T00:56:56;100975.06;;;2.14;94.00
77159;BME280;66129;45.890;13.714;2023-02-24T00:59:22;100939.97;;;2.04;93.63
77159;BME280;66129;45.890;13.714;2023-02-24T01:01:48;100997.47;;;2.37;93.73
77159;BME280;66129;45.890;13.714;2023-02-24T01:04:18;101021.78;;;2.49;93.94
77159;BME280;66129;45.890;13.714;2023-02-24T01:06:47;100968.75;;;2.06;93.93
77159;BME280;66129;45.890;13.714;2023-02-24T01:09:17;100958.91;;;1.96;94.09
77159;BME280;66129;45.890;13.714;2023-02-24T01:11:45;100976.81;;;2.15;94.24
77159;BME280;66129;45.890;13.714;2023-02-24T01:14:48;100936.66;;;2.05;94.02
77159;BME280;66129;45.890;13.714;2023-02-24T01:17:16;100974.97;;;2.27;93.94
77159;BME280;66129;45.890;13.714;2023-02-24T01:19:42;101030.53;;;2.70;93.66
77159;BME280;66129;45.890;13.714;2023-02-24T01:22:15;100953.38;;;2.17;93.28
77159;BME280;66129;45.890;13.714;2023-02-24T01:24:44;100929.69;;;2.01;93.62
77159;BME280;66129;45.890;13.714;2023-02-24T01:27:14;100988.56;;;2.43;93.72
77159;BME280;66129;45.890;13.714;2023-02-24T01:29:45;100969.22;;;2.29;93.67
77159;BME280;66129;45.890;13.714;2023-02-24T01:32:17;100923.94;;;2.04;93.50
77159;BME280;66129;45.890;13.714;2023-02-24T01:34:46;100964.88;;;2.27;93.96
77159;BME280;66129;45.890;13.714;2023-02-24T01:37:15;100945.09;;;2.20;94.11
77159;BME280;66129;45.890;13.714;2023-02-24T01:39:42;100988.56;;;2.43;94.39
77159;BME280;66129;45.890;13.714;2023-02-24T01:42:12;100964.44;;;2.34;93.63
77159;BME280;66129;45.890;13.714;2023-02-24T01:47:08;101000.13;;;2.54;93.67
77159;BME280;66129;45.890;13.714;2023-02-24T01:49:39;100955.03;;;2.17;93.54
77159;BME280;66129;45.890;13.714;2023-02-24T01:54:56;100925.00;;;2.07;93.37
77159;BME280;66129;45.890;13.714;2023-02-24T01:57:25;100946.66;;;2.18;93.64
77159;BME280;66129;45.890;13.714;2023-02-24T01:59:54;100898.69;;;1.89;93.57
77159;BME280;66129;45.890;13.714;2023-02-24T02:02:26;100964.16;;;2.29;93.53
77159;BME280;66129;45.890;13.714;2023-02-24T02:04:59;100899.88;;;1.96;93.69
77159;BME280;66129;45.890;13.714;2023-02-24T02:07:28;100900.22;;;2.02;93.61
77159;BME280;66129;45.890;13.714;2023-02-24T02:09:56;100959.03;;;2.28;94.00
77159;BME280;66129;45.890;13.714;2023-02-24T02:12:25;100899.41;;;1.87;94.40
77159;BME280;66129;45.890;13.714;2023-02-24T02:14:53;100954.59;;;2.10;94.36
77159;BME280;66129;45.890;13.714;2023-02-24T02:17:24;100984.06;;;2.23;94.44
77159;BME280;66129;45.890;13.714;2023-02-24T02:19:55;100986.66;;;2.25;95.12
77159;BME280;66129;45.890;13.714;2023-02-24T02:28:30;100984.72;;;2.35;95.41
77159;BME280;66129;45.890;13.714;2023-02-24T02:34:23;100980.00;;;2.41;95.22
77159;BME280;66129;45.890;13.714;2023-02-24T02:37:46;100942.81;;;2.24;95.00
77159;BME280;66129;45.890;13.714;2023-02-24T02:42:41;100922.25;;;2.18;95.06
77159;BME280;66129;45.890;13.714;2023-02-24T02:45:28;100985.03;;;2.56;95.26
77159;BME280;66129;45.890;13.714;2023-02-24T02:48:16;100938.44;;;2.22;94.53
77159;BME280;66129;45.890;13.714;2023-02-24T02:50:48;100992.22;;;2.48;95.16
77159;BME280;66129;45.890;13.714;2023-02-24T02:53:29;100907.03;;;2.03;94.75
77159;BME280;66129;45.890;13.714;2023-02-24T02:56:28;100980.00;;;2.41;94.79
77159;BME280;66129;45.890;13.714;2023-02-24T02:58:58;100929.13;;;2.21;94.52
77159;BME280;66129;45.890;13.714;2023-02-24T03:01:30;100963.88;;;2.39;94.08
77159;BME280;66129;45.890;13.714;2023-02-24T03:04:02;100890.22;;;2.03;93.66
77159;BME280;66129;45.890;13.714;2023-02-24T03:06:33;100873.34;;;1.88;93.88
77159;BME280;66129;45.890;13.714;2023-02-24T03:09:10;100890.59;;;1.80;93.96
77159;BME280;66129;45.890;13.714;2023-02-24T03:11:45;100978.38;;;2.27;94.32
77159;BME280;66129;45.890;13.714;2023-02-24T03:14:28;100867.97;;;1.67;94.03
77159;BME280;66129;45.890;13.714;2023-02-24T03:16:55;100918.38;;;1.95;94.25
77159;BME280;66129;45.890;13.714;2023-02-24T03:19:31;100906.19;;;1.88;93.33
77159;BME280;66129;45.890;13.714;2023-02-24T03:22:13;100906.88;;;1.85;93.38
77159;BME280;66129;45.890;13.714;2023-02-24T03:24:43;100927.00;;;1.98;93.55
77159;BME280;66129;45.890;13.714;2023-02-24T03:27:18;100876.94;;;1.62;93.39
77159;BME280;66129;45.890;13.714;2023-02-24T03:29:55;100874.34;;;1.46;93.72
77159;BME280;66129;45.890;13.714;2023-02-24T03:32:30;100874.53;;;1.49;94.18
77159;BME280;66129;45.890;13.714;2023-02-24T03:35:18;100883.75;;;1.63;94.19
77159;BME280;66129;45.890;13.714;2023-02-24T03:37:46;100854.34;;;1.35;94.42
77159;BME280;66129;45.890;13.714;2023-02-24T03:40:15;100897.59;;;1.55;95.10
77159;BME280;66129;45.890;13.714;2023-02-24T03:42:47;100882.59;;;1.58;94.90
77159;BME280;66129;45.890;13.714;2023-02-24T03:45:15;100846.75;;;1.35;94.84
77159;BME280;66129;45.890;13.714;2023-02-24T03:47:41;100913.00;;;1.74;94.52
77159;BME280;66129;45.890;13.714;2023-02-24T03:50:18;100941.91;;;1.94;94.98
77159;BME280;66129;45.890;13.714;2023-02-24T03:58:49;100843.69;;;1.11;96.84
77159;BME280;66129;45.890;13.714;2023-02-24T04:04:35;100937.13;;;1.69;97.08
77159;BME280;66129;45.890;13.714;2023-02-24T04:12:20;100881.66;;;1.27;96.80
77159;BME280;66129;45.890;13.714;2023-02-24T04:15:06;100890.28;;;1.45;97.10
77159;BME280;66129;45.890;13.714;2023-02-24T04:17:42;100843.28;;;1.18;96.97
77159;BME280;66129;45.890;13.714;2023-02-24T04:20:11;100849.78;;;1.15;96.60
77159;BME280;66129;45.890;13.714;2023-02-24T04:22:43;100825.75;;;1.07;96.89
77159;BME280;66129;45.890;13.714;2023-02-24T04:25:10;100891.41;;;1.50;97.20
77159;BME280;66129;45.890;13.714;2023-02-24T04:27:41;100847.63;;;1.35;97.24
77159;BME280;66129;45.890;13.714;2023-02-24T04:30:09;100883.38;;;1.57;97.02
77159;BME280;66129;45.890;13.714;2023-02-24T04:32:39;100867.88;;;1.66;97.84
77159;BME280;66129;45.890;13.714;2023-02-24T04:35:12;100874.38;;;1.91;97.08
77159;BME280;66129;45.890;13.714;2023-02-24T04:37:38;100828.56;;;1.71;96.93
77159;BME280;66129;45.890;13.714;2023-02-24T04:40:12;100826.22;;;1.74;97.12
77159;BME280;66129;45.890;13.714;2023-02-24T04:42:38;100870.22;;;2.08;97.72
77159;BME280;66129;45.890;13.714;2023-02-24T04:45:16;100873.56;;;2.07;97.75
77159;BME280;66129;45.890;13.714;2023-02-24T04:47:44;100826.53;;;1.94;97.67
77159;BME280;66129;45.890;13.714;2023-02-24T04:50:33;100818.09;;;2.10;97.33
77159;BME280;66129;45.890;13.714;2023-02-24T04:53:09;100872.09;;;2.42;96.64
77159;BME280;66129;45.890;13.714;2023-02-24T04:55:38;100816.88;;;2.17;97.05
77159;BME280;66129;45.890;13.714;2023-02-24T04:58:12;100861.13;;;2.57;96.78
77159;BME280;66129;45.890;13.714;2023-02-24T05:00:39;100796.41;;;2.45;97.27
77159;BME280;66129;45.890;13.714;2023-02-24T05:03:07;100859.47;;;2.74;97.73
77159;BME280;66129;45.890;13.714;2023-02-24T05:05:35;100848.97;;;2.66;97.07
77159;BME280;66129;45.890;13.714;2023-02-24T05:08:06;100845.75;;;2.69;97.10
77159;BME280;66129;45.890;13.714;2023-02-24T05:10:41;100831.41;;;2.69;97.21
77159;BME280;66129;45.890;13.714;2023-02-24T05:13:25;100896.00;;;3.11;97.26
77159;BME280;66129;45.890;13.714;2023-02-24T05:15:57;100841.19;;;2.95;96.99
77159;BME280;66129;45.890;13.714;2023-02-24T05:18:23;100883.81;;;3.20;96.38
77159;BME280;66129;45.890;13.714;2023-02-24T05:20:52;100836.91;;;2.94;96.40
77159;BME280;66129;45.890;13.714;2023-02-24T05:23:44;100842.69;;;3.08;96.46
77159;BME280;66129;45.890;13.714;2023-02-24T05:26:17;100860.13;;;3.19;96.54
77159;BME280;66129;45.890;13.714;2023-02-24T05:28:47;100799.31;;;3.02;96.55
77159;BME280;66129;45.890;13.714;2023-02-24T05:31:25;100783.22;;;3.00;96.19
77159;BME280;66129;45.890;13.714;2023-02-24T05:34:14;100819.41;;;3.15;96.75
77159;BME280;66129;45.890;13.714;2023-02-24T05:36:45;100836.69;;;3.39;97.01
77159;BME280;66129;45.890;13.714;2023-02-24T05:39:16;100835.09;;;3.41;95.94
77159;BME280;66129;45.890;13.714;2023-02-24T05:41:45;100797.72;;;3.20;95.41
77159;BME280;66129;45.890;13.714;2023-02-24T05:44:18;100771.25;;;3.13;96.83
77159;BME280;66129;45.890;13.714;2023-02-24T05:47:04;100812.84;;;3.35;96.76
77159;BME280;66129;45.890;13.714;2023-02-24T05:49:40;100831.75;;;3.42;96.69
77159;BME280;66129;45.890;13.714;2023-02-24T05:52:12;100838.25;;;3.37;95.62
77159;BME280;66129;45.890;13.714;2023-02-24T05:54:42;100806.28;;;3.06;94.50
77159;BME280;66129;45.890;13.714;2023-02-24T05:57:17;100874.88;;;3.43;96.01
77159;BME280;66129;45.890;13.714;2023-02-24T05:59:49;100857.50;;;3.33;95.85
77159;BME280;66129;45.890;13.714;2023-02-24T06:02:22;100888.97;;;3.54;95.92
77159;BME280;66129;45.890;13.714;2023-02-24T06:04:52;100821.44;;;3.22;95.97
77159;BME280;66129;45.890;13.714;2023-02-24T06:07:25;100883.06;;;3.38;93.99
77159;BME280;66129;45.890;13.714;2023-02-24T06:09:54;100846.34;;;3.30;95.49
77159;BME280;66129;45.890;13.714;2023-02-24T06:12:27;100851.84;;;3.22;93.99
77159;BME280;66129;45.890;13.714;2023-02-24T06:14:56;100839.34;;;3.25;94.95
77159;BME280;66129;45.890;13.714;2023-02-24T06:17:26;100878.44;;;3.47;94.37
77159;BME280;66129;45.890;13.714;2023-02-24T06:19:53;100792.63;;;3.02;94.84
77159;BME280;66129;45.890;13.714;2023-02-24T06:22:23;100808.81;;;3.06;93.55
77159;BME280;66129;45.890;13.714;2023-02-24T06:24:49;100793.88;;;3.10;95.41
77159;BME280;66129;45.890;13.714;2023-02-24T06:27:18;100834.53;;;3.30;94.68
77159;BME280;66129;45.890;13.714;2023-02-24T06:29:49;100819.13;;;3.26;96.83
77159;BME280;66129;45.890;13.714;2023-02-24T06:32:19;100862.69;;;3.52;97.30
77159;BME280;66129;45.890;13.714;2023-02-24T06:34:48;100897.66;;;3.77;97.11
77159;BME280;66129;45.890;13.714;2023-02-24T06:37:14;100905.34;;;3.78;94.92
77159;BME280;66129;45.890;13.714;2023-02-24T06:39:40;100902.16;;;3.82;96.02
77159;BME280;66129;45.890;13.714;2023-02-24T06:42:08;100907.31;;;4.01;96.68
77159;BME280;66129;45.890;13.714;2023-02-24T06:44:39;100820.47;;;3.53;94.98
77159;BME280;66129;45.890;13.714;2023-02-24T06:47:07;100862.53;;;3.67;93.97
77159;BME280;66129;45.890;13.714;2023-02-24T06:49:35;100861.78;;;3.52;93.29
77159;BME280;66129;45.890;13.714;2023-02-24T06:52:01;100925.34;;;3.90;94.65
77159;BME280;66129;45.890;13.714;2023-02-24T06:54:27;100839.63;;;3.48;95.66
77159;BME280;66129;45.890;13.714;2023-02-24T06:56:57;100847.09;;;3.62;95.94
77159;BME280;66129;45.890;13.714;2023-02-24T06:59:23;100844.22;;;3.72;97.11
77159;BME280;66129;45.890;13.714;2023-02-24T07:01:56;100862.75;;;4.06;97.10
77159;BME280;66129;45.890;13.714;2023-02-24T07:04:28;100847.59;;;4.08;97.41
77159;BME280;66129;45.890;13.714;2023-02-24T07:06:58;100856.50;;;4.17;96.26
77159;BME280;66129;45.890;13.714;2023-02-24T07:09:27;100887.31;;;4.43;96.39
77159;BME280;66129;45.890;13.714;2023-02-24T07:11:55;100831.81;;;4.13;94.43
77159;BME280;66129;45.890;13.714;2023-02-24T07:14:25;100871.19;;;4.24;94.03
77159;BME280;66129;45.890;13.714;2023-02-24T07:16:51;100881.41;;;4.43;96.18
77159;BME280;66129;45.890;13.714;2023-02-24T07:19:30;100884.06;;;4.46;95.26
77159;BME280;66129;45.890;13.714;2023-02-24T07:22:00;100803.06;;;3.95;93.49
77159;BME280;66129;45.890;13.714;2023-02-24T07:24:34;100884.28;;;4.50;95.65
77159;BME280;66129;45.890;13.714;2023-02-24T07:27:15;100867.72;;;4.58;96.04
77159;BME280;66129;45.890;13.714;2023-02-24T07:29:47;100889.59;;;4.74;94.48
77159;BME280;66129;45.890;13.714;2023-02-24T07:32:14;100894.06;;;4.79;94.62
77159;BME280;66129;45.890;13.714;2023-02-24T07:34:40;100811.94;;;4.41;94.47
77159;BME280;66129;45.890;13.714;2023-02-24T07:37:05;100850.75;;;4.76;94.37
77159;BME280;66129;45.890;13.714;2023-02-24T07:39:33;100789.84;;;4.57;95.19
77159;BME280;66129;45.890;13.714;2023-02-24T07:42:11;100886.69;;;5.23;95.00
77159;BME280;66129;45.890;13.714;2023-02-24T07:44:40;100796.38;;;4.90;94.75
77159;BME280;66129;45.890;13.714;2023-02-24T07:47:11;100797.75;;;5.03;94.46
77159;BME280;66129;45.890;13.714;2023-02-24T07:49:38;100852.66;;;5.40;93.99
77159;BME280;66129;45.890;13.714;2023-02-24T07:52:07;100853.19;;;5.52;94.16
77159;BME280;66129;45.890;13.714;2023-02-24T07:54:38;100793.66;;;5.27;94.88
77159;BME280;66129;45.890;13.714;2023-02-24T07:57:09;100840.00;;;5.62;94.93
77159;BME280;66129;45.890;13.714;2023-02-24T07:59:42;100841.19;;;5.70;94.00
77159;BME280;66129;45.890;13.714;2023-02-24T08:02:11;100871.16;;;5.97;93.95
77159;BME280;66129;45.890;13.714;2023-02-24T08:04:40;100840.19;;;5.87;93.46
77159;BME280;66129;45.890;13.714;2023-02-24T08:07:11;100831.72;;;5.86;93.46
77159;BME280;66129;45.890;13.714;2023-02-24T08:09:41;100880.66;;;6.23;93.13
77159;BME280;66129;45.890;13.714;2023-02-24T08:14:43;100800.22;;;6.05;92.62
77159;BME280;66129;45.890;13.714;2023-02-24T08:17:18;100831.47;;;6.46;92.32
77159;BME280;66129;45.890;13.714;2023-02-24T08:19:49;100815.44;;;6.49;91.30
77159;BME280;66129;45.890;13.714;2023-02-24T08:22:20;100853.34;;;6.86;90.75
77159;BME280;66129;45.890;13.714;2023-02-24T08:24:53;100854.03;;;7.06;89.28
77159;BME280;66129;45.890;13.714;2023-02-24T08:27:21;100838.72;;;7.04;89.56
77159;BME280;66129;45.890;13.714;2023-02-24T08:29:55;100857.16;;;7.22;89.27
77159;BME280;66129;45.890;13.714;2023-02-24T08:35:02;100856.03;;;7.64;89.19
77159;BME280;66129;45.890;13.714;2023-02-24T08:51:22;100763.19;;;7.33;85.73
77159;BME280;66129;45.890;13.714;2023-02-24T08:56:24;100823.22;;;7.74;85.18
77159;BME280;66129;45.890;13.714;2023-02-24T08:58:59;100846.94;;;7.98;85.23
77159;BME280;66129;45.890;13.714;2023-02-24T09:01:34;100852.06;;;8.00;87.57
77159;BME280;66129;45.890;13.714;2023-02-24T09:06:58;100852.25;;;8.04;88.21
77159;BME280;66129;45.890;13.714;2023-02-24T09:09:26;100843.38;;;7.93;87.22
77159;BME280;66129;45.890;13.714;2023-02-24T09:11:57;100843.38;;;7.93;88.96
77159;BME280;66129;45.890;13.714;2023-02-24T09:14:27;100854.41;;;7.92;88.04
77159;BME280;66129;45.890;13.714;2023-02-24T09:16:55;100847.56;;;7.91;88.41
77159;BME280;66129;45.890;13.714;2023-02-24T09:19:33;100791.81;;;7.51;89.90
77159;BME280;66129;45.890;13.714;2023-02-24T09:22:28;100775.56;;;7.47;88.32
77159;BME280;66129;45.890;13.714;2023-02-24T09:25:11;100821.19;;;7.65;87.64
77159;BME280;66129;45.890;13.714;2023-02-24T09:27:54;100819.13;;;7.79;87.89
77159;BME280;66129;45.890;13.714;2023-02-24T09:30:22;100847.13;;;8.04;89.75
77159;BME280;66129;45.890;13.714;2023-02-24T09:33:13;100811.13;;;7.95;89.21
77159;BME280;66129;45.890;13.714;2023-02-24T09:38:20;100773.75;;;7.97;88.25
77159;BME280;66129;45.890;13.714;2023-02-24T09:41:01;100790.53;;;8.17;86.61
77159;BME280;66129;45.890;13.714;2023-02-24T09:43:34;100797.75;;;8.30;87.41
77159;BME280;66129;45.890;13.714;2023-02-24T09:46:10;100833.25;;;8.51;88.43
77159;BME280;66129;45.890;13.714;2023-02-24T09:48:55;100790.41;;;8.14;87.66
77159;BME280;66129;45.890;13.714;2023-02-24T09:51:30;100824.59;;;8.46;88.84
77159;BME280;66129;45.890;13.714;2023-02-24T09:54:19;100836.88;;;8.59;89.07
77159;BME280;66129;45.890;13.714;2023-02-24T09:57:01;100784.25;;;8.34;88.84
77159;BME280;66129;45.890;13.714;2023-02-24T10:00:01;100791.72;;;8.28;86.81
77159;BME280;66129;45.890;13.714;2023-02-24T10:02:51;100833.53;;;8.32;87.62
77159;BME280;66129;45.890;13.714;2023-02-24T10:05:32;100793.53;;;8.04;87.54
77159;BME280;66129;45.890;13.714;2023-02-24T10:08:13;100763.97;;;7.84;87.93
77159;BME280;66129;45.890;13.714;2023-02-24T10:10:42;100784.06;;;8.00;87.53
77159;BME280;66129;45.890;13.714;2023-02-24T10:13:29;100798.38;;;8.23;89.74
77159;BME280;66129;45.890;13.714;2023-02-24T10:16:00;100806.44;;;8.37;89.00
77159;BME280;66129;45.890;13.714;2023-02-24T10:24:34;100783.09;;;8.54;88.83
77159;BME280;66129;45.890;13.714;2023-02-24T10:30:29;100819.97;;;8.93;88.34
77159;BME280;66129;45.890;13.714;2023-02-24T10:32:47;100816.72;;;9.00;88.58
77159;BME280;66129;45.890;13.714;2023-02-24T10:35:17;100806.59;;;9.03;88.32
77159;BME280;66129;45.890;13.714;2023-02-24T10:37:43;100753.91;;;8.77;87.48
77159;BME280;66129;45.890;13.714;2023-02-24T10:40:10;100767.28;;;8.98;87.13
77159;BME280;66129;45.890;13.714;2023-02-24T10:42:42;100726.22;;;8.92;87.10
77159;BME280;66129;45.890;13.714;2023-02-24T10:45:22;100796.69;;;9.49;86.63
77159;BME280;66129;45.890;13.714;2023-02-24T10:47:54;100773.59;;;9.46;85.73
77159;BME280;66129;45.890;13.714;2023-02-24T10:50:41;100748.03;;;9.47;85.26
77159;BME280;66129;45.890;13.714;2023-02-24T10:53:14;100755.31;;;9.66;85.60
77159;BME280;66129;45.890;13.714;2023-02-24T10:55:57;100755.56;;;9.77;84.97
77159;BME280;66129;45.890;13.714;2023-02-24T10:58:46;100781.56;;;9.94;84.67
77159;BME280;66129;45.890;13.714;2023-02-24T11:01:19;100767.25;;;10.01;84.21
77159;BME280;66129;45.890;13.714;2023-02-24T11:03:58;100706.78;;;9.71;84.23
77159;BME280;66129;45.890;13.714;2023-02-24T11:06:47;100744.94;;;9.98;83.73
77159;BME280;66129;45.890;13.714;2023-02-24T11:09:24;100732.16;;;9.98;83.60
77159;BME280;66129;45.890;13.714;2023-02-24T11:11:54;100763.59;;;10.30;83.23
77159;BME280;66129;45.890;13.714;2023-02-24T11:14:52;100697.88;;;9.93;82.85
77159;BME280;66129;45.890;13.714;2023-02-24T11:17:43;100733.22;;;10.06;83.54
77159;BME280;66129;45.890;13.714;2023-02-24T11:25:57;100722.50;;;10.25;84.28
77159;BME280;66129;45.890;13.714;2023-02-24T11:28:45;100686.34;;;10.10;83.96
77159;BME280;66129;45.890;13.714;2023-02-24T11:34:11;100730.13;;;10.67;83.68
77159;BME280;66129;45.890;13.714;2023-02-24T11:37:40;100696.50;;;10.49;83.30
77159;BME280;66129;45.890;13.714;2023-02-24T11:39:54;100727.88;;;10.83;83.72
77159;BME280;66129;45.890;13.714;2023-02-24T11:42:25;100677.97;;;10.63;83.65
77159;BME280;66129;45.890;13.714;2023-02-24T11:48:13;100685.41;;;10.97;83.36
77159;BME280;66129;45.890;13.714;2023-02-24T11:50:48;100701.84;;;11.11;83.28
77159;BME280;66129;45.890;13.714;2023-02-24T11:53:34;100663.94;;;10.92;83.00
77159;BME280;66129;45.890;13.714;2023-02-24T11:56:05;100701.75;;;11.03;83.09
77159;BME280;66129;45.890;13.714;2023-02-24T12:01:34;100665.31;;;10.72;85.08
77159;BME280;66129;45.890;13.714;2023-02-24T12:10:30;100676.72;;;10.89;84.36
77159;BME280;66129;45.890;13.714;2023-02-24T12:15:57;100631.38;;;10.88;83.44
77159;BME280;66129;45.890;13.714;2023-02-24T12:18:30;100621.06;;;10.85;82.84
77159;BME280;66129;45.890;13.714;2023-02-24T12:21:30;100658.47;;;11.24;82.48
77159;BME280;66129;45.890;13.714;2023-02-24T12:23:58;100623.22;;;11.11;82.94
77159;BME280;66129;45.890;13.714;2023-02-24T12:32:15;100641.56;;;11.38;81.90
77159;BME280;66129;45.890;13.714;2023-02-24T12:43:16;100627.72;;;11.26;82.47
77159;BME280;66129;45.890;13.714;2023-02-24T12:46:03;100570.81;;;10.96;82.49
77159;BME280;66129;45.890;13.714;2023-02-24T12:51:31;100609.75;;;11.26;81.82
77159;BME280;66129;45.890;13.714;2023-02-24T12:59:38;100593.69;;;11.39;80.66
77159;BME280;66129;45.890;13.714;2023-02-24T13:04:42;100611.75;;;11.48;80.86
77159;BME280;66129;45.890;13.714;2023-02-24T13:13:29;100602.53;;;11.60;80.71
77159;BME280;66129;45.890;13.714;2023-02-24T13:15:57;100544.06;;;11.37;79.47
77159;BME280;66129;45.890;13.714;2023-02-24T13:18:28;100534.47;;;11.24;79.62
77159;BME280;66129;45.890;13.714;2023-02-24T13:23:41;100558.84;;;11.54;79.41
77159;BME280;66129;45.890;13.714;2023-02-24T13:26:07;100552.84;;;11.54;79.70
77159;BME280;66129;45.890;13.714;2023-02-24T13:28:35;100525.28;;;11.42;78.78
77159;BME280;66129;45.890;13.714;2023-02-24T13:31:08;100535.69;;;11.51;78.36
77159;BME280;66129;45.890;13.714;2023-02-24T13:38:47;100547.59;;;11.46;78.95
77159;BME280;66129;45.890;13.714;2023-02-24T13:44:03;100488.84;;;11.02;78.99
77159;BME280;66129;45.890;13.714;2023-02-24T13:46:39;100532.72;;;11.23;79.51
77159;BME280;66129;45.890;13.714;2023-02-24T13:49:28;100479.34;;;10.97;79.26
77159;BME280;66129;45.890;13.714;2023-02-24T13:52:01;100549.16;;;11.35;79.51
77159;BME280;66129;45.890;13.714;2023-02-24T14:03:20;100514.72;;;11.18;78.60
77159;BME280;66129;45.890;13.714;2023-02-24T14:05:50;100519.06;;;11.22;78.82
77159;BME280;66129;45.890;13.714;2023-02-24T14:08:24;100545.69;;;11.32;78.81
77159;BME280;66129;45.890;13.714;2023-02-24T14:10:56;100495.75;;;11.06;79.16
77159;BME280;66129;45.890;13.714;2023-02-24T14:13:25;100456.19;;;10.88;79.65
77159;BME280;66129;45.890;13.714;2023-02-24T14:15:57;100497.56;;;11.14;79.77
77159;BME280;66129;45.890;13.714;2023-02-24T14:18:25;100490.66;;;11.12;79.10
77159;BME280;66129;45.890;13.714;2023-02-24T14:20:53;100476.06;;;11.05;79.06
77159;BME280;66129;45.890;13.714;2023-02-24T14:23:26;100465.81;;;11.05;79.22
77159;BME280;66129;45.890;13.714;2023-02-24T14:26:11;100463.34;;;11.12;79.31
77159;BME280;66129;45.890;13.714;2023-02-24T14:28:40;100433.19;;;10.95;79.57
77159;BME280;66129;45.890;13.714;2023-02-24T14:31:13;100510.66;;;11.34;79.34
77159;BME280;66129;45.890;13.714;2023-02-24T14:33:41;100434.88;;;10.93;79.04
77159;BME280;66129;45.890;13.714;2023-02-24T14:36:17;100462.38;;;11.03;78.52
77159;BME280;66129;45.890;13.714;2023-02-24T14:38:45;100492.59;;;11.28;78.71
77159;BME280;66129;45.890;13.714;2023-02-24T14:41:19;100459.88;;;11.10;78.95
77159;BME280;66129;45.890;13.714;2023-02-24T14:43:45;100458.16;;;11.08;78.69
77159;BME280;66129;45.890;13.714;2023-02-24T14:46:10;100431.34;;;10.85;78.81
77159;BME280;66129;45.890;13.714;2023-02-24T14:48:36;100444.38;;;11.02;79.15
77159;BME280;66129;45.890;13.714;2023-02-24T14:51:06;100461.53;;;11.05;79.75
77159;BME280;66129;45.890;13.714;2023-02-24T14:53:47;100455.56;;;11.05;79.25
77159;BME280;66129;45.890;13.714;2023-02-24T14:56:57;100474.47;;;11.16;79.16
77159;BME280;66129;45.890;13.714;2023-02-24T14:59:32;100420.31;;;10.91;78.65
77159;BME280;66129;45.890;13.714;2023-02-24T15:02:05;100425.50;;;10.97;78.45
77159;BME280;66129;45.890;13.714;2023-02-24T15:04:41;100377.28;;;10.69;78.52
77159;BME280;66129;45.890;13.714;2023-02-24T15:07:21;100409.13;;;10.87;78.64
77159;BME280;66129;45.890;13.714;2023-02-24T15:09:49;100373.97;;;10.76;78.24
77159;BME280;66129;45.890;13.714;2023-02-24T15:14:49;100353.50;;;10.79;78.54
77159;BME280;66129;45.890;13.714;2023-02-24T15:17:19;100435.38;;;11.35;77.49
77159;BME280;66129;45.890;13.714;2023-02-24T15:19:51;100407.91;;;11.25;78.13
77159;BME280;66129;45.890;13.714;2023-02-24T15:25:30;100350.13;;;10.84;77.13
77159;BME280;66129;45.890;13.714;2023-02-24T15:27:58;100351.97;;;10.93;77.01
77159;BME280;66129;45.890;13.714;2023-02-24T15:30:31;100415.59;;;11.26;78.12
77159;BME280;66129;45.890;13.714;2023-02-24T15:33:05;100345.88;;;10.86;77.71
77159;BME280;66129;45.890;13.714;2023-02-24T15:35:33;100419.81;;;11.20;78.22
77159;BME280;66129;45.890;13.714;2023-02-24T15:38:01;100341.44;;;10.72;78.63
77159;BME280;66129;45.890;13.714;2023-02-24T15:40:27;100381.06;;;10.96;78.59
77159;BME280;66129;45.890;13.714;2023-02-24T15:45:58;100398.41;;;11.18;77.39
77159;BME280;66129;45.890;13.714;2023-02-24T15:48:29;100370.75;;;10.93;77.50
77159;BME280;66129;45.890;13.714;2023-02-24T15:51:03;100328.56;;;10.69;77.70